Herbert, Illinois
Current Conditions -  °F | °C
As of 3:35 AM on Tuesday 21 Oct 2014 (Local Time) from KDKB Reporting Station
Overcast Overcast  
Wind Chill: 44°   Ceiling: 4200
Heat Index: 46°   Visibility: 10mi
Dew Point: 42°   Wind: 6mph
Humidity: 83%   Direction: 350°N
Pressure: 30.05"   Gusts: NA
Location:  42.1119°N, 88.7806°W
Report Text: KDKB 210835Z AUTO 35005KT 10SM OVC042 08/05 A3005 RMK AO2 T00800053
Loading
Personal Weather Stations






























Interactive Weather Map
Tropical Storm Tracking
New forecast layout! Learn more

10-Day Weather Forecast

Advertisements
Track Severe Weather on mobile